sensor_id;sensor_type;location;lat;lon;timestamp;P1;durP1;ratioP1;P2;durP2;ratioP2
72524;SDS011;60547;48.502;8.996;2023-05-07T00:01:41;4.55;;;2.83;;
72524;SDS011;60547;48.502;8.996;2023-05-07T00:04:07;5.03;;;2.95;;
72524;SDS011;60547;48.502;8.996;2023-05-07T00:06:32;5.93;;;2.88;;
72524;SDS011;60547;48.502;8.996;2023-05-07T00:08:58;4.63;;;2.67;;
72524;SDS011;60547;48.502;8.996;2023-05-07T00:11:26;4.85;;;2.60;;
72524;SDS011;60547;48.502;8.996;2023-05-07T00:13:52;5.38;;;2.90;;
72524;SDS011;60547;48.502;8.996;2023-05-07T00:16:18;5.88;;;2.90;;
72524;SDS011;60547;48.502;8.996;2023-05-07T00:18:44;7.40;;;3.10;;
72524;SDS011;60547;48.502;8.996;2023-05-07T00:21:10;5.40;;;2.70;;
72524;SDS011;60547;48.502;8.996;2023-05-07T00:23:36;5.50;;;2.97;;
72524;SDS011;60547;48.502;8.996;2023-05-07T00:26:02;5.65;;;3.05;;
72524;SDS011;60547;48.502;8.996;2023-05-07T00:28:28;9.35;;;3.10;;
72524;SDS011;60547;48.502;8.996;2023-05-07T00:30:53;6.88;;;2.85;;
72524;SDS011;60547;48.502;8.996;2023-05-07T00:33:19;4.38;;;2.60;;
72524;SDS011;60547;48.502;8.996;2023-05-07T00:35:46;4.97;;;2.70;;
72524;SDS011;60547;48.502;8.996;2023-05-07T00:38:11;5.18;;;2.75;;
72524;SDS011;60547;48.502;8.996;2023-05-07T00:40:37;4.10;;;2.50;;
72524;SDS011;60547;48.502;8.996;2023-05-07T00:43:02;4.97;;;2.90;;
72524;SDS011;60547;48.502;8.996;2023-05-07T00:45:28;6.53;;;2.72;;
72524;SDS011;60547;48.502;8.996;2023-05-07T00:47:57;5.45;;;2.95;;
72524;SDS011;60547;48.502;8.996;2023-05-07T00:50:25;4.35;;;2.70;;
72524;SDS011;60547;48.502;8.996;2023-05-07T00:52:52;5.20;;;2.78;;
72524;SDS011;60547;48.502;8.996;2023-05-07T00:55:18;4.13;;;2.80;;
72524;SDS011;60547;48.502;8.996;2023-05-07T00:57:43;6.35;;;3.15;;
72524;SDS011;60547;48.502;8.996;2023-05-07T01:00:09;5.85;;;3.10;;
72524;SDS011;60547;48.502;8.996;2023-05-07T01:02:40;5.25;;;2.70;;
72524;SDS011;60547;48.502;8.996;2023-05-07T01:05:07;6.57;;;3.22;;
72524;SDS011;60547;48.502;8.996;2023-05-07T01:07:35;6.68;;;2.97;;
72524;SDS011;60547;48.502;8.996;2023-05-07T01:10:02;5.95;;;3.05;;
72524;SDS011;60547;48.502;8.996;2023-05-07T01:12:29;6.05;;;2.97;;
72524;SDS011;60547;48.502;8.996;2023-05-07T01:14:56;5.38;;;3.00;;
72524;SDS011;60547;48.502;8.996;2023-05-07T01:17:22;6.30;;;2.90;;
72524;SDS011;60547;48.502;8.996;2023-05-07T01:19:48;5.25;;;2.80;;
72524;SDS011;60547;48.502;8.996;2023-05-07T01:22:16;5.65;;;3.40;;
72524;SDS011;60547;48.502;8.996;2023-05-07T01:24:53;5.57;;;2.65;;
72524;SDS011;60547;48.502;8.996;2023-05-07T01:27:21;5.45;;;3.17;;
72524;SDS011;60547;48.502;8.996;2023-05-07T01:29:46;5.90;;;2.95;;
72524;SDS011;60547;48.502;8.996;2023-05-07T01:32:12;4.82;;;2.72;;
72524;SDS011;60547;48.502;8.996;2023-05-07T01:34:39;5.38;;;2.92;;
72524;SDS011;60547;48.502;8.996;2023-05-07T01:37:05;6.13;;;3.03;;
72524;SDS011;60547;48.502;8.996;2023-05-07T01:39:31;6.68;;;3.40;;
72524;SDS011;60547;48.502;8.996;2023-05-07T01:41:57;5.10;;;2.83;;
72524;SDS011;60547;48.502;8.996;2023-05-07T01:44:24;4.88;;;2.75;;
72524;SDS011;60547;48.502;8.996;2023-05-07T01:46:54;6.07;;;3.03;;
72524;SDS011;60547;48.502;8.996;2023-05-07T01:49:20;5.30;;;3.10;;
72524;SDS011;60547;48.502;8.996;2023-05-07T01:51:45;7.53;;;3.25;;
72524;SDS011;60547;48.502;8.996;2023-05-07T01:54:11;4.80;;;3.00;;
72524;SDS011;60547;48.502;8.996;2023-05-07T01:56:37;5.97;;;2.90;;
72524;SDS011;60547;48.502;8.996;2023-05-07T01:59:02;5.82;;;2.83;;
72524;SDS011;60547;48.502;8.996;2023-05-07T02:01:28;5.20;;;2.90;;
72524;SDS011;60547;48.502;8.996;2023-05-07T02:03:53;4.82;;;2.83;;
72524;SDS011;60547;48.502;8.996;2023-05-07T02:06:19;6.05;;;2.97;;
72524;SDS011;60547;48.502;8.996;2023-05-07T02:08:45;5.30;;;2.85;;
72524;SDS011;60547;48.502;8.996;2023-05-07T02:11:11;5.78;;;3.33;;
72524;SDS011;60547;48.502;8.996;2023-05-07T02:13:36;5.03;;;3.05;;
72524;SDS011;60547;48.502;8.996;2023-05-07T02:16:02;6.32;;;2.92;;
72524;SDS011;60547;48.502;8.996;2023-05-07T02:18:28;4.63;;;2.83;;
72524;SDS011;60547;48.502;8.996;2023-05-07T02:20:54;6.47;;;3.78;;
72524;SDS011;60547;48.502;8.996;2023-05-07T02:23:19;5.35;;;2.63;;
72524;SDS011;60547;48.502;8.996;2023-05-07T02:25:45;4.43;;;2.72;;
72524;SDS011;60547;48.502;8.996;2023-05-07T02:28:11;4.75;;;2.85;;
72524;SDS011;60547;48.502;8.996;2023-05-07T02:30:37;6.20;;;2.78;;
72524;SDS011;60547;48.502;8.996;2023-05-07T02:33:03;6.72;;;3.20;;
72524;SDS011;60547;48.502;8.996;2023-05-07T02:35:29;5.72;;;2.80;;
72524;SDS011;60547;48.502;8.996;2023-05-07T02:37:54;4.60;;;2.83;;
72524;SDS011;60547;48.502;8.996;2023-05-07T02:40:20;5.47;;;2.90;;
72524;SDS011;60547;48.502;8.996;2023-05-07T02:42:45;5.70;;;3.33;;
72524;SDS011;60547;48.502;8.996;2023-05-07T02:45:10;5.60;;;3.10;;
72524;SDS011;60547;48.502;8.996;2023-05-07T02:47:36;6.32;;;2.97;;
72524;SDS011;60547;48.502;8.996;2023-05-07T02:50:02;8.48;;;3.10;;
72524;SDS011;60547;48.502;8.996;2023-05-07T02:52:27;5.15;;;2.88;;
72524;SDS011;60547;48.502;8.996;2023-05-07T02:54:53;5.75;;;2.92;;
72524;SDS011;60547;48.502;8.996;2023-05-07T02:57:18;6.43;;;2.90;;
72524;SDS011;60547;48.502;8.996;2023-05-07T02:59:44;6.05;;;3.10;;
72524;SDS011;60547;48.502;8.996;2023-05-07T03:02:09;5.25;;;2.45;;
72524;SDS011;60547;48.502;8.996;2023-05-07T03:04:35;4.65;;;2.72;;
72524;SDS011;60547;48.502;8.996;2023-05-07T03:07:01;4.68;;;2.63;;
72524;SDS011;60547;48.502;8.996;2023-05-07T03:09:26;5.90;;;2.90;;
72524;SDS011;60547;48.502;8.996;2023-05-07T03:11:52;7.05;;;3.00;;
72524;SDS011;60547;48.502;8.996;2023-05-07T03:14:17;6.63;;;3.20;;
72524;SDS011;60547;48.502;8.996;2023-05-07T03:16:43;5.82;;;2.97;;
72524;SDS011;60547;48.502;8.996;2023-05-07T03:19:08;6.40;;;2.72;;
72524;SDS011;60547;48.502;8.996;2023-05-07T03:21:33;4.82;;;2.78;;
72524;SDS011;60547;48.502;8.996;2023-05-07T03:23:59;5.03;;;3.20;;
72524;SDS011;60547;48.502;8.996;2023-05-07T03:26:25;5.22;;;3.25;;
72524;SDS011;60547;48.502;8.996;2023-05-07T03:28:51;4.78;;;3.00;;
72524;SDS011;60547;48.502;8.996;2023-05-07T03:31:16;4.80;;;2.83;;
72524;SDS011;60547;48.502;8.996;2023-05-07T03:33:49;5.72;;;3.22;;
72524;SDS011;60547;48.502;8.996;2023-05-07T03:36:18;6.57;;;2.97;;
72524;SDS011;60547;48.502;8.996;2023-05-07T03:38:44;4.53;;;2.80;;
72524;SDS011;60547;48.502;8.996;2023-05-07T03:41:10;5.47;;;3.00;;
72524;SDS011;60547;48.502;8.996;2023-05-07T03:43:36;6.10;;;3.10;;
72524;SDS011;60547;48.502;8.996;2023-05-07T03:46:01;5.57;;;3.08;;
72524;SDS011;60547;48.502;8.996;2023-05-07T03:48:27;6.63;;;3.00;;
72524;SDS011;60547;48.502;8.996;2023-05-07T03:50:52;5.78;;;3.00;;
72524;SDS011;60547;48.502;8.996;2023-05-07T03:53:18;4.68;;;3.00;;
72524;SDS011;60547;48.502;8.996;2023-05-07T03:55:43;5.18;;;3.10;;
72524;SDS011;60547;48.502;8.996;2023-05-07T03:58:09;6.80;;;3.50;;
72524;SDS011;60547;48.502;8.996;2023-05-07T04:00:34;5.45;;;3.20;;
72524;SDS011;60547;48.502;8.996;2023-05-07T04:03:03;5.40;;;3.10;;
72524;SDS011;60547;48.502;8.996;2023-05-07T04:05:30;8.60;;;3.35;;
72524;SDS011;60547;48.502;8.996;2023-05-07T04:07:57;7.63;;;3.40;;
72524;SDS011;60547;48.502;8.996;2023-05-07T04:10:23;4.97;;;3.17;;
72524;SDS011;60547;48.502;8.996;2023-05-07T04:12:48;5.00;;;3.13;;
72524;SDS011;60547;48.502;8.996;2023-05-07T04:15:14;5.05;;;2.88;;
72524;SDS011;60547;48.502;8.996;2023-05-07T04:17:39;5.82;;;2.80;;
72524;SDS011;60547;48.502;8.996;2023-05-07T04:20:08;6.15;;;3.00;;
72524;SDS011;60547;48.502;8.996;2023-05-07T04:22:34;4.85;;;2.80;;
72524;SDS011;60547;48.502;8.996;2023-05-07T04:24:59;5.45;;;3.47;;
72524;SDS011;60547;48.502;8.996;2023-05-07T04:27:25;7.53;;;3.53;;
72524;SDS011;60547;48.502;8.996;2023-05-07T04:29:51;5.75;;;3.08;;
72524;SDS011;60547;48.502;8.996;2023-05-07T04:32:17;7.15;;;3.40;;
72524;SDS011;60547;48.502;8.996;2023-05-07T04:34:42;5.75;;;3.13;;
72524;SDS011;60547;48.502;8.996;2023-05-07T04:37:08;5.80;;;3.05;;
72524;SDS011;60547;48.502;8.996;2023-05-07T04:39:33;5.28;;;2.92;;
72524;SDS011;60547;48.502;8.996;2023-05-07T04:42:00;4.78;;;3.13;;
72524;SDS011;60547;48.502;8.996;2023-05-07T04:44:25;6.03;;;3.10;;
72524;SDS011;60547;48.502;8.996;2023-05-07T04:46:51;6.13;;;3.42;;
72524;SDS011;60547;48.502;8.996;2023-05-07T04:49:16;7.32;;;3.70;;
72524;SDS011;60547;48.502;8.996;2023-05-07T04:51:42;10.55;;;6.97;;
72524;SDS011;60547;48.502;8.996;2023-05-07T04:54:08;10.40;;;6.47;;
72524;SDS011;60547;48.502;8.996;2023-05-07T04:56:33;7.78;;;5.25;;
72524;SDS011;60547;48.502;8.996;2023-05-07T04:58:59;5.50;;;3.65;;
72524;SDS011;60547;48.502;8.996;2023-05-07T05:01:24;5.63;;;3.47;;
72524;SDS011;60547;48.502;8.996;2023-05-07T05:03:50;5.55;;;3.13;;
72524;SDS011;60547;48.502;8.996;2023-05-07T05:06:15;5.53;;;3.03;;
72524;SDS011;60547;48.502;8.996;2023-05-07T05:08:41;5.28;;;2.95;;
72524;SDS011;60547;48.502;8.996;2023-05-07T05:11:06;5.57;;;2.78;;
72524;SDS011;60547;48.502;8.996;2023-05-07T05:13:32;8.45;;;2.60;;
72524;SDS011;60547;48.502;8.996;2023-05-07T05:15:57;5.53;;;3.30;;
72524;SDS011;60547;48.502;8.996;2023-05-07T05:18:23;5.82;;;2.92;;
72524;SDS011;60547;48.502;8.996;2023-05-07T05:20:48;5.22;;;3.40;;
72524;SDS011;60547;48.502;8.996;2023-05-07T05:23:14;5.30;;;2.80;;
72524;SDS011;60547;48.502;8.996;2023-05-07T05:25:39;5.03;;;2.92;;
72524;SDS011;60547;48.502;8.996;2023-05-07T05:28:05;7.13;;;2.97;;
72524;SDS011;60547;48.502;8.996;2023-05-07T05:30:30;6.07;;;2.95;;
72524;SDS011;60547;48.502;8.996;2023-05-07T05:32:56;6.70;;;3.47;;
72524;SDS011;60547;48.502;8.996;2023-05-07T05:35:21;5.50;;;2.92;;
72524;SDS011;60547;48.502;8.996;2023-05-07T05:37:47;6.18;;;3.30;;
72524;SDS011;60547;48.502;8.996;2023-05-07T05:40:13;5.97;;;3.10;;
72524;SDS011;60547;48.502;8.996;2023-05-07T05:42:38;5.18;;;2.95;;
72524;SDS011;60547;48.502;8.996;2023-05-07T05:45:04;5.95;;;2.97;;
72524;SDS011;60547;48.502;8.996;2023-05-07T05:47:30;4.30;;;3.00;;
72524;SDS011;60547;48.502;8.996;2023-05-07T05:49:56;4.60;;;2.65;;
72524;SDS011;60547;48.502;8.996;2023-05-07T05:52:22;4.75;;;2.85;;
72524;SDS011;60547;48.502;8.996;2023-05-07T05:54:49;7.63;;;3.13;;
72524;SDS011;60547;48.502;8.996;2023-05-07T05:57:14;5.25;;;2.97;;
72524;SDS011;60547;48.502;8.996;2023-05-07T05:59:40;5.57;;;2.80;;
72524;SDS011;60547;48.502;8.996;2023-05-07T06:02:06;5.40;;;2.95;;
72524;SDS011;60547;48.502;8.996;2023-05-07T06:04:31;6.60;;;3.00;;
72524;SDS011;60547;48.502;8.996;2023-05-07T06:06:57;5.80;;;2.63;;
72524;SDS011;60547;48.502;8.996;2023-05-07T06:09:23;6.97;;;2.83;;
72524;SDS011;60547;48.502;8.996;2023-05-07T06:11:48;4.95;;;2.70;;
72524;SDS011;60547;48.502;8.996;2023-05-07T06:14:13;4.40;;;2.80;;
72524;SDS011;60547;48.502;8.996;2023-05-07T06:16:39;4.40;;;2.72;;
72524;SDS011;60547;48.502;8.996;2023-05-07T06:19:05;4.47;;;2.92;;
72524;SDS011;60547;48.502;8.996;2023-05-07T06:21:30;4.85;;;2.80;;
72524;SDS011;60547;48.502;8.996;2023-05-07T06:23:56;5.70;;;2.95;;
72524;SDS011;60547;48.502;8.996;2023-05-07T06:26:22;4.55;;;3.10;;
72524;SDS011;60547;48.502;8.996;2023-05-07T06:28:47;4.32;;;2.85;;
72524;SDS011;60547;48.502;8.996;2023-05-07T06:31:16;5.03;;;2.83;;
72524;SDS011;60547;48.502;8.996;2023-05-07T06:33:45;4.70;;;2.90;;
72524;SDS011;60547;48.502;8.996;2023-05-07T06:36:11;4.90;;;2.97;;
72524;SDS011;60547;48.502;8.996;2023-05-07T06:38:36;5.88;;;2.88;;
72524;SDS011;60547;48.502;8.996;2023-05-07T06:41:02;5.32;;;2.92;;
72524;SDS011;60547;48.502;8.996;2023-05-07T06:43:27;5.30;;;2.92;;
72524;SDS011;60547;48.502;8.996;2023-05-07T06:45:53;5.10;;;2.55;;
72524;SDS011;60547;48.502;8.996;2023-05-07T06:48:18;4.75;;;2.67;;
72524;SDS011;60547;48.502;8.996;2023-05-07T06:50:44;5.55;;;3.22;;
72524;SDS011;60547;48.502;8.996;2023-05-07T06:53:10;3.95;;;2.38;;
72524;SDS011;60547;48.502;8.996;2023-05-07T06:55:36;4.88;;;2.80;;
72524;SDS011;60547;48.502;8.996;2023-05-07T06:58:03;5.25;;;3.00;;
72524;SDS011;60547;48.502;8.996;2023-05-07T07:00:29;8.35;;;3.33;;
72524;SDS011;60547;48.502;8.996;2023-05-07T07:02:54;5.25;;;2.40;;
72524;SDS011;60547;48.502;8.996;2023-05-07T07:05:20;4.05;;;2.40;;
72524;SDS011;60547;48.502;8.996;2023-05-07T07:07:46;4.30;;;2.45;;
72524;SDS011;60547;48.502;8.996;2023-05-07T07:10:21;4.70;;;2.92;;
72524;SDS011;60547;48.502;8.996;2023-05-07T07:12:47;4.53;;;2.92;;
72524;SDS011;60547;48.502;8.996;2023-05-07T07:15:13;4.63;;;2.63;;
72524;SDS011;60547;48.502;8.996;2023-05-07T07:17:39;6.25;;;2.90;;
72524;SDS011;60547;48.502;8.996;2023-05-07T07:20:05;5.07;;;2.80;;
72524;SDS011;60547;48.502;8.996;2023-05-07T07:22:31;5.20;;;2.90;;
72524;SDS011;60547;48.502;8.996;2023-05-07T07:24:57;5.97;;;3.08;;
72524;SDS011;60547;48.502;8.996;2023-05-07T07:27:22;5.50;;;3.15;;
72524;SDS011;60547;48.502;8.996;2023-05-07T07:29:48;4.57;;;2.72;;
72524;SDS011;60547;48.502;8.996;2023-05-07T07:32:13;5.15;;;2.85;;
72524;SDS011;60547;48.502;8.996;2023-05-07T07:34:39;3.88;;;2.50;;
72524;SDS011;60547;48.502;8.996;2023-05-07T07:37:04;4.55;;;2.63;;
72524;SDS011;60547;48.502;8.996;2023-05-07T07:39:34;5.30;;;2.53;;
72524;SDS011;60547;48.502;8.996;2023-05-07T07:42:00;5.13;;;3.28;;
72524;SDS011;60547;48.502;8.996;2023-05-07T07:44:27;7.35;;;2.83;;
72524;SDS011;60547;48.502;8.996;2023-05-07T07:46:53;4.35;;;2.58;;
72524;SDS011;60547;48.502;8.996;2023-05-07T07:49:18;5.45;;;2.75;;
72524;SDS011;60547;48.502;8.996;2023-05-07T07:51:44;5.18;;;2.95;;
72524;SDS011;60547;48.502;8.996;2023-05-07T07:54:09;5.85;;;2.63;;
72524;SDS011;60547;48.502;8.996;2023-05-07T07:56:35;7.35;;;3.45;;
72524;SDS011;60547;48.502;8.996;2023-05-07T07:59:01;4.80;;;2.63;;
72524;SDS011;60547;48.502;8.996;2023-05-07T08:01:26;6.00;;;3.05;;
72524;SDS011;60547;48.502;8.996;2023-05-07T08:03:53;6.00;;;2.92;;
72524;SDS011;60547;48.502;8.996;2023-05-07T08:06:19;6.13;;;2.83;;
72524;SDS011;60547;48.502;8.996;2023-05-07T08:08:44;4.43;;;2.80;;
72524;SDS011;60547;48.502;8.996;2023-05-07T08:11:10;6.07;;;3.20;;
72524;SDS011;60547;48.502;8.996;2023-05-07T08:13:36;5.10;;;2.78;;
72524;SDS011;60547;48.502;8.996;2023-05-07T08:16:03;5.28;;;3.08;;
72524;SDS011;60547;48.502;8.996;2023-05-07T08:18:29;5.47;;;2.85;;
72524;SDS011;60547;48.502;8.996;2023-05-07T08:20:55;5.93;;;2.88;;
72524;SDS011;60547;48.502;8.996;2023-05-07T08:23:21;4.70;;;3.10;;
72524;SDS011;60547;48.502;8.996;2023-05-07T08:25:47;7.65;;;3.08;;
72524;SDS011;60547;48.502;8.996;2023-05-07T08:28:14;5.82;;;3.42;;
72524;SDS011;60547;48.502;8.996;2023-05-07T08:30:39;4.43;;;3.00;;
72524;SDS011;60547;48.502;8.996;2023-05-07T08:33:05;5.55;;;3.50;;
72524;SDS011;60547;48.502;8.996;2023-05-07T08:35:31;6.63;;;3.22;;
72524;SDS011;60547;48.502;8.996;2023-05-07T08:37:56;6.55;;;3.03;;
72524;SDS011;60547;48.502;8.996;2023-05-07T08:40:23;5.20;;;3.45;;
72524;SDS011;60547;48.502;8.996;2023-05-07T08:42:50;5.57;;;2.85;;
72524;SDS011;60547;48.502;8.996;2023-05-07T08:45:17;5.45;;;2.88;;
72524;SDS011;60547;48.502;8.996;2023-05-07T08:47:47;6.43;;;2.97;;
72524;SDS011;60547;48.502;8.996;2023-05-07T08:50:21;4.38;;;2.78;;
72524;SDS011;60547;48.502;8.996;2023-05-07T08:52:47;5.70;;;3.10;;
72524;SDS011;60547;48.502;8.996;2023-05-07T08:55:13;4.53;;;2.72;;
72524;SDS011;60547;48.502;8.996;2023-05-07T08:57:39;5.53;;;3.08;;
72524;SDS011;60547;48.502;8.996;2023-05-07T09:00:04;4.63;;;2.90;;
72524;SDS011;60547;48.502;8.996;2023-05-07T09:02:32;7.13;;;2.92;;
72524;SDS011;60547;48.502;8.996;2023-05-07T09:04:58;5.43;;;3.00;;
72524;SDS011;60547;48.502;8.996;2023-05-07T09:07:24;5.18;;;2.80;;
72524;SDS011;60547;48.502;8.996;2023-05-07T09:09:51;4.60;;;2.67;;
72524;SDS011;60547;48.502;8.996;2023-05-07T09:12:17;4.95;;;2.80;;
72524;SDS011;60547;48.502;8.996;2023-05-07T09:14:44;5.18;;;2.65;;
72524;SDS011;60547;48.502;8.996;2023-05-07T09:17:11;5.75;;;2.45;;
72524;SDS011;60547;48.502;8.996;2023-05-07T09:19:36;4.38;;;2.67;;
72524;SDS011;60547;48.502;8.996;2023-05-07T09:22:02;5.68;;;2.70;;
72524;SDS011;60547;48.502;8.996;2023-05-07T09:24:29;4.25;;;2.30;;
72524;SDS011;60547;48.502;8.996;2023-05-07T09:27:00;5.00;;;2.17;;
72524;SDS011;60547;48.502;8.996;2023-05-07T09:29:27;5.53;;;2.90;;
72524;SDS011;60547;48.502;8.996;2023-05-07T09:32:04;6.07;;;2.60;;
72524;SDS011;60547;48.502;8.996;2023-05-07T09:34:31;3.95;;;2.40;;
72524;SDS011;60547;48.502;8.996;2023-05-07T09:36:58;3.65;;;2.30;;
72524;SDS011;60547;48.502;8.996;2023-05-07T09:39:25;6.00;;;2.42;;
72524;SDS011;60547;48.502;8.996;2023-05-07T09:41:51;6.00;;;3.00;;
72524;SDS011;60547;48.502;8.996;2023-05-07T09:44:20;5.03;;;2.90;;
72524;SDS011;60547;48.502;8.996;2023-05-07T09:46:47;7.50;;;2.83;;
72524;SDS011;60547;48.502;8.996;2023-05-07T09:49:21;4.40;;;2.17;;
72524;SDS011;60547;48.502;8.996;2023-05-07T09:51:48;4.60;;;2.60;;
72524;SDS011;60547;48.502;8.996;2023-05-07T09:54:15;4.18;;;2.33;;
72524;SDS011;60547;48.502;8.996;2023-05-07T09:56:44;5.82;;;2.78;;
72524;SDS011;60547;48.502;8.996;2023-05-07T09:59:14;4.40;;;2.20;;
72524;SDS011;60547;48.502;8.996;2023-05-07T10:01:41;4.72;;;2.13;;
72524;SDS011;60547;48.502;8.996;2023-05-07T10:04:08;4.20;;;2.40;;
72524;SDS011;60547;48.502;8.996;2023-05-07T10:06:34;4.68;;;2.58;;
72524;SDS011;60547;48.502;8.996;2023-05-07T10:09:01;4.22;;;2.38;;
72524;SDS011;60547;48.502;8.996;2023-05-07T10:11:27;7.38;;;2.80;;
72524;SDS011;60547;48.502;8.996;2023-05-07T10:13:53;3.92;;;2.15;;
72524;SDS011;60547;48.502;8.996;2023-05-07T10:16:20;4.43;;;2.40;;
72524;SDS011;60547;48.502;8.996;2023-05-07T10:18:46;3.90;;;2.20;;
72524;SDS011;60547;48.502;8.996;2023-05-07T10:21:17;4.88;;;2.55;;
72524;SDS011;60547;48.502;8.996;2023-05-07T10:23:45;5.65;;;2.25;;
72524;SDS011;60547;48.502;8.996;2023-05-07T10:28:42;4.82;;;2.35;;
72524;SDS011;60547;48.502;8.996;2023-05-07T10:33:43;5.97;;;2.30;;
72524;SDS011;60547;48.502;8.996;2023-05-07T10:36:12;4.63;;;2.20;;
72524;SDS011;60547;48.502;8.996;2023-05-07T10:38:37;4.95;;;2.42;;
72524;SDS011;60547;48.502;8.996;2023-05-07T10:41:04;3.92;;;2.15;;
72524;SDS011;60547;48.502;8.996;2023-05-07T10:43:43;4.05;;;2.17;;
72524;SDS011;60547;48.502;8.996;2023-05-07T10:51:28;3.88;;;1.90;;
72524;SDS011;60547;48.502;8.996;2023-05-07T10:56:36;4.43;;;1.90;;
72524;SDS011;60547;48.502;8.996;2023-05-07T11:02:07;5.10;;;2.25;;
72524;SDS011;60547;48.502;8.996;2023-05-07T11:04:34;4.38;;;2.33;;
72524;SDS011;60547;48.502;8.996;2023-05-07T11:17:32;3.67;;;2.03;;
72524;SDS011;60547;48.502;8.996;2023-05-07T11:20:00;3.35;;;1.95;;
72524;SDS011;60547;48.502;8.996;2023-05-07T11:24:55;3.28;;;1.75;;
72524;SDS011;60547;48.502;8.996;2023-05-07T11:27:25;4.15;;;1.90;;
72524;SDS011;60547;48.502;8.996;2023-05-07T11:29:51;3.75;;;2.00;;
72524;SDS011;60547;48.502;8.996;2023-05-07T11:32:37;4.50;;;1.80;;
72524;SDS011;60547;48.502;8.996;2023-05-07T11:35:02;3.55;;;1.83;;
72524;SDS011;60547;48.502;8.996;2023-05-07T11:37:28;5.00;;;1.70;;
72524;SDS011;60547;48.502;8.996;2023-05-07T11:40:04;3.50;;;1.88;;
72524;SDS011;60547;48.502;8.996;2023-05-07T11:42:32;3.72;;;1.80;;
72524;SDS011;60547;48.502;8.996;2023-05-07T11:44:59;3.25;;;2.00;;
72524;SDS011;60547;48.502;8.996;2023-05-07T11:47:25;3.05;;;1.65;;
72524;SDS011;60547;48.502;8.996;2023-05-07T11:49:51;4.10;;;1.85;;
72524;SDS011;60547;48.502;8.996;2023-05-07T11:52:18;5.18;;;2.40;;
72524;SDS011;60547;48.502;8.996;2023-05-07T11:54:49;4.72;;;2.25;;
72524;SDS011;60547;48.502;8.996;2023-05-07T11:57:22;3.45;;;2.05;;
72524;SDS011;60547;48.502;8.996;2023-05-07T11:59:52;4.75;;;2.15;;
72524;SDS011;60547;48.502;8.996;2023-05-07T12:02:21;4.05;;;1.90;;
72524;SDS011;60547;48.502;8.996;2023-05-07T12:04:47;4.85;;;2.17;;
72524;SDS011;60547;48.502;8.996;2023-05-07T12:07:16;4.28;;;1.90;;
72524;SDS011;60547;48.502;8.996;2023-05-07T12:09:46;4.63;;;2.40;;
72524;SDS011;60547;48.502;8.996;2023-05-07T12:12:12;4.00;;;2.17;;
72524;SDS011;60547;48.502;8.996;2023-05-07T12:14:41;4.63;;;2.30;;
72524;SDS011;60547;48.502;8.996;2023-05-07T12:17:08;4.20;;;1.85;;
72524;SDS011;60547;48.502;8.996;2023-05-07T12:19:34;5.07;;;2.35;;
72524;SDS011;60547;48.502;8.996;2023-05-07T12:22:02;4.32;;;2.60;;
72524;SDS011;60547;48.502;8.996;2023-05-07T12:24:28;4.00;;;2.20;;
72524;SDS011;60547;48.502;8.996;2023-05-07T12:26:53;4.03;;;2.55;;
72524;SDS011;60547;48.502;8.996;2023-05-07T12:29:22;4.32;;;2.20;;
72524;SDS011;60547;48.502;8.996;2023-05-07T12:31:51;3.78;;;2.47;;
72524;SDS011;60547;48.502;8.996;2023-05-07T12:34:16;4.70;;;2.30;;
72524;SDS011;60547;48.502;8.996;2023-05-07T12:36:42;5.90;;;2.60;;
72524;SDS011;60547;48.502;8.996;2023-05-07T12:39:07;5.32;;;2.50;;
72524;SDS011;60547;48.502;8.996;2023-05-07T12:41:56;4.47;;;2.15;;
72524;SDS011;60547;48.502;8.996;2023-05-07T12:44:28;4.25;;;1.92;;
72524;SDS011;60547;48.502;8.996;2023-05-07T12:46:55;3.95;;;1.92;;
72524;SDS011;60547;48.502;8.996;2023-05-07T12:49:21;5.75;;;2.15;;
72524;SDS011;60547;48.502;8.996;2023-05-07T12:51:47;4.00;;;2.05;;
72524;SDS011;60547;48.502;8.996;2023-05-07T12:54:14;3.90;;;1.80;;
72524;SDS011;60547;48.502;8.996;2023-05-07T12:56:59;4.72;;;2.20;;
72524;SDS011;60547;48.502;8.996;2023-05-07T12:59:59;5.75;;;2.42;;
72524;SDS011;60547;48.502;8.996;2023-05-07T13:02:31;6.18;;;2.63;;
72524;SDS011;60547;48.502;8.996;2023-05-07T13:04:58;4.43;;;2.78;;
72524;SDS011;60547;48.502;8.996;2023-05-07T13:07:24;6.07;;;2.88;;
72524;SDS011;60547;48.502;8.996;2023-05-07T13:09:50;6.90;;;2.90;;
72524;SDS011;60547;48.502;8.996;2023-05-07T13:12:15;5.00;;;2.88;;
72524;SDS011;60547;48.502;8.996;2023-05-07T13:14:41;6.35;;;3.08;;
72524;SDS011;60547;48.502;8.996;2023-05-07T13:17:06;6.18;;;2.70;;
72524;SDS011;60547;48.502;8.996;2023-05-07T13:19:32;5.88;;;3.17;;
72524;SDS011;60547;48.502;8.996;2023-05-07T13:21:58;6.40;;;2.88;;
72524;SDS011;60547;48.502;8.996;2023-05-07T13:24:24;6.53;;;3.03;;
72524;SDS011;60547;48.502;8.996;2023-05-07T13:26:49;5.25;;;2.67;;
72524;SDS011;60547;48.502;8.996;2023-05-07T13:29:15;5.70;;;2.72;;
72524;SDS011;60547;48.502;8.996;2023-05-07T13:31:40;8.00;;;3.10;;
72524;SDS011;60547;48.502;8.996;2023-05-07T13:34:09;6.22;;;2.90;;
72524;SDS011;60547;48.502;8.996;2023-05-07T13:36:34;5.53;;;2.33;;
72524;SDS011;60547;48.502;8.996;2023-05-07T13:39:02;6.32;;;2.50;;
72524;SDS011;60547;48.502;8.996;2023-05-07T13:41:28;6.22;;;2.50;;
72524;SDS011;60547;48.502;8.996;2023-05-07T13:43:54;5.70;;;2.88;;
72524;SDS011;60547;48.502;8.996;2023-05-07T13:46:20;8.30;;;2.28;;
72524;SDS011;60547;48.502;8.996;2023-05-07T13:48:47;9.02;;;2.70;;
72524;SDS011;60547;48.502;8.996;2023-05-07T13:51:12;9.45;;;3.10;;
72524;SDS011;60547;48.502;8.996;2023-05-07T13:53:38;6.38;;;3.00;;
72524;SDS011;60547;48.502;8.996;2023-05-07T13:56:03;5.97;;;2.80;;
72524;SDS011;60547;48.502;8.996;2023-05-07T13:58:30;5.68;;;2.50;;
72524;SDS011;60547;48.502;8.996;2023-05-07T14:00:55;5.90;;;2.10;;
72524;SDS011;60547;48.502;8.996;2023-05-07T14:03:21;7.55;;;2.30;;
72524;SDS011;60547;48.502;8.996;2023-05-07T14:05:47;6.97;;;2.63;;
72524;SDS011;60547;48.502;8.996;2023-05-07T14:08:12;3.80;;;2.25;;
72524;SDS011;60547;48.502;8.996;2023-05-07T14:10:39;10.18;;;2.75;;
72524;SDS011;60547;48.502;8.996;2023-05-07T14:13:05;7.18;;;3.00;;
72524;SDS011;60547;48.502;8.996;2023-05-07T14:15:31;5.65;;;2.75;;
72524;SDS011;60547;48.502;8.996;2023-05-07T14:18:00;5.22;;;3.00;;
72524;SDS011;60547;48.502;8.996;2023-05-07T14:20:25;4.85;;;2.38;;
72524;SDS011;60547;48.502;8.996;2023-05-07T14:22:51;4.32;;;2.28;;
72524;SDS011;60547;48.502;8.996;2023-05-07T14:25:17;4.78;;;2.35;;
72524;SDS011;60547;48.502;8.996;2023-05-07T14:27:42;5.45;;;2.80;;
72524;SDS011;60547;48.502;8.996;2023-05-07T14:30:10;4.57;;;2.30;;
72524;SDS011;60547;48.502;8.996;2023-05-07T14:32:36;6.13;;;2.70;;
72524;SDS011;60547;48.502;8.996;2023-05-07T14:35:01;5.82;;;2.42;;
72524;SDS011;60547;48.502;8.996;2023-05-07T14:37:27;7.53;;;2.78;;
72524;SDS011;60547;48.502;8.996;2023-05-07T14:39:53;6.63;;;3.20;;
72524;SDS011;60547;48.502;8.996;2023-05-07T14:42:18;4.55;;;2.65;;
72524;SDS011;60547;48.502;8.996;2023-05-07T14:44:44;5.05;;;3.40;;
72524;SDS011;60547;48.502;8.996;2023-05-07T14:47:10;5.53;;;3.03;;
72524;SDS011;60547;48.502;8.996;2023-05-07T14:49:35;7.43;;;3.47;;
72524;SDS011;60547;48.502;8.996;2023-05-07T14:52:01;6.80;;;4.22;;
72524;SDS011;60547;48.502;8.996;2023-05-07T14:54:27;12.05;;;4.80;;
72524;SDS011;60547;48.502;8.996;2023-05-07T14:56:53;8.38;;;4.53;;
72524;SDS011;60547;48.502;8.996;2023-05-07T14:59:18;10.55;;;5.18;;
72524;SDS011;60547;48.502;8.996;2023-05-07T15:01:46;7.45;;;3.88;;
72524;SDS011;60547;48.502;8.996;2023-05-07T15:04:13;6.32;;;3.40;;
72524;SDS011;60547;48.502;8.996;2023-05-07T15:06:39;5.78;;;3.20;;
72524;SDS011;60547;48.502;8.996;2023-05-07T15:09:05;6.35;;;3.38;;
72524;SDS011;60547;48.502;8.996;2023-05-07T15:11:30;5.55;;;2.80;;
72524;SDS011;60547;48.502;8.996;2023-05-07T15:13:55;6.00;;;2.90;;